createdAt,value
2022-09-22T00:02:21.927Z,101062.06
2022-09-22T00:04:50.475Z,101057.69
2022-09-22T00:07:20.256Z,101061.94
2022-09-22T00:09:48.856Z,101055.72
2022-09-22T00:12:17.326Z,101058.19
2022-09-22T00:14:45.969Z,101056.44
2022-09-22T00:17:14.538Z,101064.16
2022-09-22T00:19:42.974Z,101061.47
2022-09-22T00:22:11.226Z,101053.50
2022-09-22T00:24:43.009Z,101061.28
2022-09-22T00:27:11.531Z,101055.97
2022-09-22T00:29:39.899Z,101058.47
2022-09-22T00:32:09.071Z,101061.94
2022-09-22T00:34:37.367Z,101058.34
2022-09-22T00:37:05.734Z,101070.41
2022-09-22T00:39:34.014Z,101062.53
2022-09-22T00:42:04.399Z,101064.16
2022-09-22T00:44:39.379Z,101063.25
2022-09-22T00:47:16.834Z,101074.44
2022-09-22T00:49:50.466Z,101069.97
2022-09-22T00:52:23.993Z,101055.13
2022-09-22T00:54:55.574Z,101066.38
2022-09-22T00:57:31.121Z,101063.63
2022-09-22T01:00:00.015Z,101061.81
2022-09-22T01:02:28.328Z,101059.06
2022-09-22T01:04:56.639Z,101058.16
2022-09-22T01:07:27.687Z,101053.69
2022-09-22T01:09:56.689Z,101051.81
2022-09-22T01:12:27.721Z,101040.41
2022-09-22T01:15:21.597Z,101040.25
2022-09-22T01:18:02.805Z,101041.91
2022-09-22T01:21:07.857Z,101032.16
2022-09-22T01:24:17.462Z,101037.28
2022-09-22T01:27:12.757Z,101028.47
2022-09-22T01:30:08.798Z,101034.53
2022-09-22T01:32:43.833Z,101034.38
2022-09-22T01:35:20.727Z,101023.88
2022-09-22T01:37:59.176Z,101033.41
2022-09-22T01:40:35.458Z,101022.88
2022-09-22T01:43:13.198Z,101025.44
2022-09-22T01:45:48.361Z,101020.22
2022-09-22T01:48:21.063Z,101015.78
2022-09-22T01:50:53.863Z,101021.91
2022-09-22T01:53:25.762Z,101021.00
2022-09-22T01:55:59.778Z,101009.59
2022-09-22T01:58:33.300Z,101010.44
2022-09-22T02:01:12.265Z,101011.25
2022-09-22T02:03:46.918Z,101004.25
2022-09-22T02:06:20.857Z,101016.38
2022-09-22T02:08:54.161Z,101011.91
2022-09-22T02:11:22.745Z,100998.88
2022-09-22T02:13:51.208Z,100995.28
2022-09-22T02:16:24.806Z,101003.94
2022-09-22T02:18:57.408Z,100997.91
2022-09-22T02:21:31.078Z,100998.72
2022-09-22T02:24:00.939Z,100997.75
2022-09-22T02:26:32.788Z,101000.34
2022-09-22T02:29:03.961Z,100998.56
2022-09-22T02:31:37.681Z,100993.38
2022-09-22T02:34:07.390Z,100992.44
2022-09-22T02:36:47.661Z,100997.66
2022-09-22T02:39:23.206Z,100995.88
2022-09-22T02:42:11.731Z,100995.00
2022-09-22T02:44:47.995Z,100998.41
2022-09-22T02:47:23.297Z,100989.69
2022-09-22T02:49:53.756Z,100986.19
2022-09-22T02:52:25.363Z,100986.97
2022-09-22T02:54:55.262Z,100985.22
2022-09-22T02:57:24.085Z,100977.38
2022-09-22T02:59:52.374Z,100979.09
2022-09-22T03:02:21.998Z,100976.50
2022-09-22T03:04:51.521Z,100975.63
2022-09-22T03:07:20.071Z,100974.69
2022-09-22T03:09:48.297Z,100970.41
2022-09-22T03:12:16.602Z,100979.00
2022-09-22T03:14:44.933Z,100970.31
2022-09-22T03:17:13.232Z,100968.53
2022-09-22T03:19:42.885Z,100977.25
2022-09-22T03:22:11.137Z,100965.09
2022-09-22T03:24:39.586Z,100972.81
2022-09-22T03:27:07.898Z,100966.72
2022-09-22T03:29:36.150Z,100968.44
2022-09-22T03:32:04.588Z,100963.22
2022-09-22T03:34:32.838Z,100959.63
2022-09-22T03:37:02.536Z,100957.88
2022-09-22T03:39:30.836Z,100954.38
2022-09-22T03:41:59.115Z,100954.38
2022-09-22T03:44:27.551Z,100960.38
2022-09-22T03:46:55.816Z,100954.28
2022-09-22T03:49:24.932Z,100964.69
2022-09-22T03:51:53.863Z,100958.50
2022-09-22T03:54:23.519Z,100964.56
2022-09-22T03:56:52.035Z,100954.88
2022-09-22T03:59:20.298Z,100954.78
2022-09-22T04:01:48.686Z,100957.28
2022-09-22T04:04:17.116Z,100952.00
2022-09-22T04:06:45.386Z,100948.44
2022-09-22T04:09:17.504Z,100947.53
2022-09-22T04:11:47.263Z,100948.28
2022-09-22T04:14:15.537Z,100942.19
2022-09-22T04:16:43.871Z,100937.72
2022-09-22T04:19:12.288Z,100928.03
2022-09-22T04:21:41.026Z,100927.09
2022-09-22T04:24:11.462Z,100933.97
2022-09-22T04:26:47.791Z,100937.38
2022-09-22T04:29:29.873Z,100939.00
2022-09-22T04:31:58.100Z,100937.22
2022-09-22T04:34:26.355Z,100933.63
2022-09-22T04:36:54.605Z,100942.28
2022-09-22T04:39:23.935Z,100934.38
2022-09-22T04:41:52.459Z,100933.38
2022-09-22T04:44:20.732Z,100933.31
2022-09-22T04:46:50.886Z,100938.34
2022-09-22T04:49:19.667Z,100931.28
2022-09-22T04:51:48.281Z,100926.00
2022-09-22T04:54:16.618Z,100930.22
2022-09-22T04:56:45.328Z,100938.88
2022-09-22T04:59:13.587Z,100933.47
2022-09-22T05:01:41.945Z,100934.31
2022-09-22T05:04:11.673Z,100941.13
2022-09-22T05:06:41.674Z,100947.97
2022-09-22T05:09:10.247Z,100940.97
2022-09-22T05:11:39.480Z,100945.19
2022-09-22T05:14:07.742Z,100948.63
2022-09-22T05:16:36.107Z,100945.84
2022-09-22T05:19:04.452Z,100952.69
2022-09-22T05:21:35.708Z,100949.16
2022-09-22T05:24:04.685Z,100950.00
2022-09-22T05:26:32.952Z,100951.72
2022-09-22T05:29:01.226Z,100950.72
2022-09-22T05:31:29.517Z,100948.91
2022-09-22T05:33:57.822Z,100954.13
2022-09-22T05:36:26.175Z,100957.56
2022-09-22T05:38:55.784Z,100948.75
2022-09-22T05:41:25.561Z,100957.41
2022-09-22T05:43:54.050Z,100960.00
2022-09-22T05:46:22.321Z,100953.00
2022-09-22T05:48:50.607Z,100946.09
2022-09-22T05:51:18.891Z,100950.38
2022-09-22T05:53:47.179Z,100950.38
2022-09-22T05:56:16.829Z,100947.00
2022-09-22T05:58:45.144Z,100945.28
2022-09-22T06:01:13.480Z,100943.56
2022-09-22T06:03:41.855Z,100949.66
2022-09-22T06:06:10.166Z,100954.13
2022-09-22T06:08:38.423Z,100956.81
2022-09-22T06:11:06.914Z,100956.03
2022-09-22T06:13:36.650Z,100954.38
2022-09-22T06:16:05.260Z,100960.66
2022-09-22T06:18:33.577Z,100959.84
2022-09-22T06:21:01.869Z,100954.78
2022-09-22T06:23:31.921Z,100952.38
2022-09-22T06:26:00.373Z,100950.72
2022-09-22T06:28:28.684Z,100954.41
2022-09-22T06:31:01.565Z,100959.72
2022-09-22T06:33:30.440Z,100946.00
2022-09-22T06:36:00.934Z,100955.78
2022-09-22T06:38:31.857Z,100945.44
2022-09-22T06:41:03.001Z,100946.56
2022-09-22T06:43:32.911Z,100952.84
2022-09-22T06:46:02.730Z,100948.78
2022-09-22T06:48:31.995Z,100947.22
2022-09-22T06:51:00.270Z,100957.06
2022-09-22T06:53:28.583Z,100958.22
2022-09-22T06:55:59.060Z,100948.91
2022-09-22T06:58:28.951Z,100963.06
2022-09-22T07:01:09.647Z,100955.50
2022-09-22T07:03:41.608Z,100952.28
2022-09-22T07:06:10.948Z,100955.19
2022-09-22T07:08:39.449Z,100954.69
2022-09-22T07:11:09.331Z,100950.69
2022-09-22T07:13:39.869Z,100952.78
2022-09-22T07:16:10.386Z,100953.19
2022-09-22T07:18:43.797Z,100966.75
2022-09-22T07:21:14.272Z,100956.78
2022-09-22T07:23:44.176Z,100950.34
2022-09-22T07:26:14.582Z,100953.50
2022-09-22T07:28:43.474Z,100957.38
2022-09-22T07:31:13.683Z,100950.03
2022-09-22T07:33:44.761Z,100954.84
2022-09-22T07:36:14.732Z,100950.16
2022-09-22T07:38:44.535Z,100954.97
2022-09-22T07:41:14.595Z,100951.88
2022-09-22T07:43:43.546Z,100946.22
2022-09-22T07:46:13.194Z,100955.38
2022-09-22T07:48:47.800Z,100957.56
2022-09-22T07:51:19.127Z,100957.13
2022-09-22T07:53:49.202Z,100953.16
2022-09-22T07:56:21.154Z,100955.34
2022-09-22T07:58:51.085Z,100949.59
2022-09-22T08:01:21.559Z,100943.00
2022-09-22T08:03:52.114Z,100944.25
2022-09-22T08:06:23.793Z,100949.91
2022-09-22T08:08:56.301Z,100951.19
2022-09-22T08:11:26.539Z,100941.13
2022-09-22T08:13:57.119Z,100953.75
2022-09-22T08:16:28.301Z,100947.94
2022-09-22T08:18:59.621Z,100955.31
2022-09-22T08:21:35.591Z,100948.69
2022-09-22T08:24:05.040Z,100950.75
2022-09-22T08:26:36.640Z,100947.63
2022-09-22T08:29:06.689Z,100947.13
2022-09-22T08:31:36.864Z,100941.28
2022-09-22T08:34:06.718Z,100941.63
2022-09-22T08:36:35.053Z,100933.16
2022-09-22T08:39:04.421Z,100937.78
2022-09-22T08:41:41.295Z,100938.94
2022-09-22T08:44:22.843Z,100939.28
2022-09-22T08:46:51.776Z,100941.28
2022-09-22T08:49:44.181Z,100949.50
2022-09-22T08:52:18.229Z,100937.56
2022-09-22T08:54:46.799Z,100939.59
2022-09-22T08:57:35.647Z,100942.56
2022-09-22T09:00:07.286Z,100945.59
2022-09-22T09:02:41.160Z,100945.03
2022-09-22T09:05:44.881Z,100947.13
2022-09-22T09:08:46.419Z,100944.91
2022-09-22T09:11:26.991Z,100944.34
2022-09-22T09:14:11.867Z,100949.88
2022-09-22T09:16:48.091Z,100944.94
2022-09-22T09:19:20.257Z,100948.75
2022-09-22T09:21:55.094Z,100941.94
2022-09-22T09:27:24.113Z,100945.19
2022-09-22T09:30:01.339Z,100940.97
2022-09-22T09:32:38.582Z,100944.78
2022-09-22T09:35:12.870Z,100942.38
2022-09-22T09:37:42.275Z,100945.28
2022-09-22T09:40:15.778Z,100937.63
2022-09-22T09:42:45.458Z,100942.22
2022-09-22T09:45:15.614Z,100939.03
2022-09-22T09:48:00.079Z,100930.50
2022-09-22T09:50:32.354Z,100932.50
2022-09-22T09:53:01.069Z,100930.88
2022-09-22T09:55:31.674Z,100929.31
2022-09-22T09:58:05.075Z,100930.38
2022-09-22T10:00:34.365Z,100924.38
2022-09-22T10:03:14.354Z,100916.66
2022-09-22T10:05:43.431Z,100907.19
2022-09-22T10:08:19.999Z,100904.69
2022-09-22T10:10:50.053Z,100900.47
2022-09-22T10:13:33.310Z,100900.66
2022-09-22T10:16:23.040Z,100897.34
2022-09-22T10:18:52.816Z,100902.66
2022-09-22T10:21:22.814Z,100894.06
2022-09-22T10:23:52.094Z,100888.06
2022-09-22T10:26:26.243Z,100881.22
2022-09-22T10:29:18.193Z,100881.31
2022-09-22T10:32:05.266Z,100887.69
2022-09-22T10:34:36.383Z,100891.34
2022-09-22T10:37:10.639Z,100889.75
2022-09-22T10:39:45.613Z,100889.03
2022-09-22T10:42:28.617Z,100880.44
2022-09-22T10:45:01.929Z,100882.41
2022-09-22T10:47:51.791Z,100883.47
2022-09-22T10:50:38.254Z,100884.41
2022-09-22T10:53:27.370Z,100876.72
2022-09-22T10:56:05.489Z,100874.25
2022-09-22T10:58:53.725Z,100867.34
2022-09-22T11:01:39.567Z,100872.75
2022-09-22T11:04:24.936Z,100877.38
2022-09-22T11:07:30.507Z,100866.09
2022-09-22T11:10:27.159Z,100869.75
2022-09-22T11:13:05.361Z,100862.84
2022-09-22T11:15:45.750Z,100868.38
2022-09-22T11:18:31.041Z,100868.56
2022-09-22T11:21:09.865Z,100856.38
2022-09-22T11:24:02.518Z,100854.78
2022-09-22T11:26:48.212Z,100856.63
2022-09-22T11:29:47.362Z,100854.13
2022-09-22T11:32:34.102Z,100862.22
2022-09-22T11:35:25.304Z,100842.06
2022-09-22T11:38:09.376Z,100837.75
2022-09-22T11:41:01.001Z,100830.84
2022-09-22T11:43:41.350Z,100823.00
2022-09-22T11:46:15.357Z,100824.84
2022-09-22T11:48:58.949Z,100829.34
2022-09-22T11:51:42.663Z,100827.66
2022-09-22T11:54:27.293Z,100818.94
2022-09-22T11:57:00.041Z,100817.25
2022-09-22T11:59:39.441Z,100810.25
2022-09-22T12:02:17.221Z,100816.53
2022-09-22T12:04:53.685Z,100807.69
2022-09-22T12:07:29.361Z,100801.56
2022-09-22T12:10:01.879Z,100795.44
2022-09-22T12:12:32.524Z,100791.94
2022-09-22T12:15:08.418Z,100790.19
2022-09-22T12:17:41.971Z,100790.22
2022-09-22T12:20:27.406Z,100779.69
2022-09-22T12:23:15.423Z,100786.81
2022-09-22T12:25:49.105Z,100781.56
2022-09-22T12:28:25.692Z,100778.06
2022-09-22T12:31:04.908Z,100769.25
2022-09-22T12:33:37.014Z,100765.78
2022-09-22T12:36:07.814Z,100764.00
2022-09-22T12:38:36.153Z,100756.97
2022-09-22T12:41:05.457Z,100755.22
2022-09-22T12:43:35.865Z,100760.50
2022-09-22T12:46:13.075Z,100755.19
2022-09-22T12:48:46.307Z,100750.81
2022-09-22T12:51:34.731Z,100761.41
2022-09-22T12:54:38.630Z,100750.81
2022-09-22T12:57:29.509Z,100748.19
2022-09-22T13:00:22.871Z,100746.41
2022-09-22T13:02:51.488Z,100748.16
2022-09-22T13:05:36.073Z,100752.56
2022-09-22T13:08:05.748Z,100743.69
2022-09-22T13:10:52.516Z,100739.22
2022-09-22T13:13:42.358Z,100742.75
2022-09-22T13:16:34.724Z,100733.84
2022-09-22T13:19:03.991Z,100738.22
2022-09-22T13:21:34.455Z,100739.03
2022-09-22T13:24:07.306Z,100728.34
2022-09-22T13:26:37.944Z,100729.22
2022-09-22T13:29:13.738Z,100730.09
2022-09-22T13:31:44.389Z,100729.16
2022-09-22T13:34:26.634Z,100721.13
2022-09-22T13:37:00.261Z,100717.47
2022-09-22T13:39:34.989Z,100713.84
2022-09-22T13:42:07.293Z,100713.75
2022-09-22T13:44:39.869Z,100710.13
2022-09-22T13:47:17.064Z,100703.81
2022-09-22T13:49:49.555Z,100701.13
2022-09-22T13:52:22.490Z,100704.53
2022-09-22T13:54:56.908Z,100700.00
2022-09-22T13:57:28.982Z,100696.34
2022-09-22T13:59:58.594Z,100683.84
2022-09-22T14:02:31.929Z,100693.47
2022-09-22T14:05:03.750Z,100688.91
2022-09-22T14:07:38.345Z,100684.59
2022-09-22T14:10:19.315Z,100677.56
2022-09-22T14:12:48.180Z,100682.03
2022-09-22T14:15:40.145Z,100675.72
2022-09-22T14:18:18.826Z,100678.19
2022-09-22T14:20:48.357Z,100684.25
2022-09-22T14:23:22.066Z,100667.09
2022-09-22T14:25:51.699Z,100667.91
2022-09-22T14:28:24.891Z,100667.03
2022-09-22T14:30:53.762Z,100662.50
2022-09-22T14:33:25.716Z,100662.38
2022-09-22T14:36:01.331Z,100658.66
2022-09-22T14:38:34.266Z,100655.84
2022-09-22T14:41:04.240Z,100653.03
2022-09-22T14:43:42.165Z,100650.16
2022-09-22T14:46:23.919Z,100652.63
2022-09-22T14:48:52.304Z,100650.81
2022-09-22T14:51:23.535Z,100642.81
2022-09-22T14:53:55.348Z,100639.19
2022-09-22T14:56:28.834Z,100644.41
2022-09-22T14:59:02.412Z,100638.19
2022-09-22T15:01:50.801Z,100635.56
2022-09-22T15:04:23.275Z,100632.88
2022-09-22T15:06:56.193Z,100625.59
2022-09-22T15:09:27.536Z,100630.75
2022-09-22T15:12:00.327Z,100632.28
2022-09-22T15:14:44.133Z,100628.56
2022-09-22T15:17:52.891Z,100631.97
2022-09-22T15:20:21.283Z,100625.56
2022-09-22T15:22:49.983Z,100617.38
2022-09-22T15:25:18.494Z,100614.53
2022-09-22T15:27:51.566Z,100613.50
2022-09-22T15:30:20.743Z,100608.03
2022-09-22T15:32:49.564Z,100614.19
2022-09-22T15:35:20.474Z,100609.63
2022-09-22T15:37:50.593Z,100609.63
2022-09-22T15:40:21.499Z,100608.03
2022-09-22T15:43:11.641Z,100602.81
2022-09-22T15:45:47.529Z,100599.53
2022-09-22T15:48:23.790Z,100593.44
2022-09-22T15:50:52.359Z,100593.63
2022-09-22T15:53:20.668Z,100594.66
2022-09-22T15:55:48.953Z,100588.50
2022-09-22T15:58:22.800Z,100593.00
2022-09-22T16:00:51.656Z,100580.59
2022-09-22T16:03:23.792Z,100588.75
2022-09-22T16:05:57.017Z,100579.16
2022-09-22T16:08:29.542Z,100584.88
2022-09-22T16:10:58.313Z,100575.50
2022-09-22T16:13:28.079Z,100578.63
2022-09-22T16:15:56.558Z,100580.78
2022-09-22T16:18:25.400Z,100574.94
2022-09-22T16:21:02.998Z,100581.53
2022-09-22T16:23:31.418Z,100588.00
2022-09-22T16:25:59.840Z,100584.72
2022-09-22T16:28:29.474Z,100584.00
2022-09-22T16:31:02.850Z,100579.75
2022-09-22T16:33:31.234Z,100580.75
2022-09-22T16:35:59.631Z,100584.44
2022-09-22T16:38:29.086Z,100580.16
2022-09-22T16:41:05.299Z,100581.19
2022-09-22T16:43:35.206Z,100586.63
2022-09-22T16:46:20.901Z,100577.81
2022-09-22T16:48:50.992Z,100587.66
2022-09-22T16:51:19.377Z,100580.63
2022-09-22T16:53:52.707Z,100578.94
2022-09-22T16:56:21.967Z,100579.88
2022-09-22T16:58:52.063Z,100581.69
2022-09-22T17:01:20.961Z,100579.03
2022-09-22T17:03:50.625Z,100583.50
2022-09-22T17:06:23.053Z,100578.19
2022-09-22T17:08:52.885Z,100583.50
2022-09-22T17:11:29.600Z,100581.75
2022-09-22T17:14:01.370Z,100578.19
2022-09-22T17:16:30.919Z,100575.50
2022-09-22T17:19:02.453Z,100574.59
2022-09-22T17:21:34.443Z,100569.25
2022-09-22T17:24:04.399Z,100583.38
2022-09-22T17:26:35.456Z,100581.56
2022-09-22T17:29:06.057Z,100585.03
2022-09-22T17:31:35.939Z,100581.41
2022-09-22T17:34:04.489Z,100578.66
2022-09-22T17:36:33.582Z,100571.53
2022-09-22T17:39:02.269Z,100576.72
2022-09-22T17:41:32.858Z,100575.75
2022-09-22T17:44:03.275Z,100572.13
2022-09-22T17:46:35.116Z,100580.84
2022-09-22T17:49:20.824Z,100579.84
2022-09-22T17:52:08.048Z,100578.75
2022-09-22T17:54:55.682Z,100577.78
2022-09-22T17:57:25.917Z,100576.72
2022-09-22T17:59:56.308Z,100578.34
2022-09-22T18:02:28.066Z,100585.28
2022-09-22T18:04:56.902Z,100586.03
2022-09-22T18:07:26.866Z,100580.59
2022-09-22T18:09:55.897Z,100579.59
2022-09-22T18:12:25.985Z,100581.22
2022-09-22T18:14:55.897Z,100583.69
2022-09-22T18:17:29.066Z,100585.28
2022-09-22T18:19:58.482Z,100580.72
2022-09-22T18:22:29.695Z,100585.88
2022-09-22T18:24:58.026Z,100585.72
2022-09-22T18:27:27.918Z,100583.81
2022-09-22T18:29:58.624Z,100583.63
2022-09-22T18:32:30.393Z,100589.66
2022-09-22T18:34:58.654Z,100583.34
2022-09-22T18:37:27.261Z,100586.78
2022-09-22T18:39:55.770Z,100584.00
2022-09-22T18:42:27.450Z,100580.34
2022-09-22T18:44:55.763Z,100578.50
2022-09-22T18:47:24.141Z,100581.06
2022-09-22T18:49:53.891Z,100573.88
2022-09-22T18:52:24.250Z,100579.00
2022-09-22T18:54:54.452Z,100585.88
2022-09-22T18:57:25.424Z,100576.91
2022-09-22T18:59:57.414Z,100577.69
2022-09-22T19:02:25.815Z,100574.03
2022-09-22T19:04:55.646Z,100578.25
2022-09-22T19:07:42.492Z,100574.66
2022-09-22T19:10:13.078Z,100569.19
2022-09-22T19:12:42.448Z,100572.59
2022-09-22T19:15:16.451Z,100575.09
2022-09-22T19:17:46.418Z,100573.19
2022-09-22T19:20:18.627Z,100575.72
2022-09-22T19:22:49.227Z,100578.19
2022-09-22T19:25:18.765Z,100578.03
2022-09-22T19:27:47.253Z,100569.97
2022-09-22T19:30:17.723Z,100576.03
2022-09-22T19:32:49.344Z,100572.31
2022-09-22T19:35:19.469Z,100571.31
2022-09-22T19:37:47.927Z,100565.91
2022-09-22T19:40:18.767Z,100568.47
2022-09-22T19:42:48.630Z,100573.59
2022-09-22T19:45:17.047Z,100570.00
2022-09-22T19:47:46.012Z,100566.41
2022-09-22T19:50:14.955Z,100564.56
2022-09-22T19:52:44.768Z,100576.75
2022-09-22T19:55:13.120Z,100563.47
2022-09-22T19:57:42.052Z,100562.53
2022-09-22T20:00:17.058Z,100562.41
2022-09-22T20:02:45.837Z,100561.41
2022-09-22T20:05:22.080Z,100564.84
2022-09-22T20:07:51.973Z,100561.22
2022-09-22T20:10:22.487Z,100555.84
2022-09-22T20:12:51.520Z,100558.38
2022-09-22T20:15:20.554Z,100551.28
2022-09-22T20:17:49.162Z,100557.34
2022-09-22T20:20:19.642Z,100557.22
2022-09-22T20:22:50.353Z,100554.53
2022-09-22T20:25:23.672Z,100553.53
2022-09-22T20:27:51.959Z,100553.47
2022-09-22T20:30:20.358Z,100550.72
2022-09-22T20:32:50.306Z,100549.75
2022-09-22T20:35:21.663Z,100555.81
2022-09-22T20:37:51.420Z,100553.13
2022-09-22T20:40:23.116Z,100551.28
2022-09-22T20:42:54.109Z,100550.34
2022-09-22T20:45:24.611Z,100552.88
2022-09-22T20:47:53.147Z,100537.91
2022-09-22T20:50:22.175Z,100536.09
2022-09-22T20:52:50.750Z,100536.03
2022-09-22T20:55:19.360Z,100535.09
2022-09-22T20:57:49.388Z,100531.56
2022-09-22T21:00:17.879Z,100543.78
2022-09-22T21:02:47.271Z,100534.09
2022-09-22T21:05:15.806Z,100528.81
2022-09-22T21:07:44.085Z,100538.41
2022-09-22T21:10:30.070Z,100535.75
2022-09-22T21:13:00.438Z,100535.69
2022-09-22T21:15:29.897Z,100528.69
2022-09-22T21:17:58.396Z,100534.75
2022-09-22T21:20:27.030Z,100536.50
2022-09-22T21:22:55.718Z,100535.56
2022-09-22T21:25:24.976Z,100528.56
2022-09-22T21:27:53.274Z,100531.13
2022-09-22T21:30:22.948Z,100526.72
2022-09-22T21:32:51.301Z,100527.59
2022-09-22T21:35:19.584Z,100525.78
2022-09-22T21:37:47.875Z,100530.16
2022-09-22T21:40:17.466Z,100529.28
2022-09-22T21:42:45.790Z,100522.22
2022-09-22T21:45:14.097Z,100523.94
2022-09-22T21:47:44.283Z,100522.16
2022-09-22T21:50:12.791Z,100515.97
2022-09-22T21:52:41.074Z,100516.81
2022-09-22T21:55:09.943Z,100513.22
2022-09-22T21:57:38.203Z,100518.41
2022-09-22T22:00:08.422Z,100507.84
2022-09-22T22:02:54.072Z,100508.66
2022-09-22T22:05:23.723Z,100510.34
2022-09-22T22:07:51.984Z,100505.06
2022-09-22T22:10:20.314Z,100505.88
2022-09-22T22:12:48.617Z,100508.38
2022-09-22T22:15:17.044Z,100511.78
2022-09-22T22:17:45.312Z,100500.34
2022-09-22T22:20:13.598Z,100502.91
2022-09-22T22:22:43.258Z,100500.28
2022-09-22T22:25:17.255Z,100496.72
2022-09-22T22:27:45.869Z,100494.94
2022-09-22T22:30:14.336Z,100489.59
2022-09-22T22:32:43.027Z,100482.56
2022-09-22T22:35:11.594Z,100481.63
2022-09-22T22:37:39.954Z,100479.88
2022-09-22T22:40:10.422Z,100483.25
2022-09-22T22:42:38.756Z,100483.25
2022-09-22T22:45:07.485Z,100471.81
2022-09-22T22:47:35.731Z,100483.97
2022-09-22T22:50:04.105Z,100477.84
2022-09-22T22:52:32.384Z,100475.22
2022-09-22T22:55:00.624Z,100475.16
2022-09-22T22:57:30.287Z,100485.56
2022-09-22T22:59:58.552Z,100486.50
2022-09-22T23:02:26.946Z,100472.38
2022-09-22T23:04:58.572Z,100472.38
2022-09-22T23:07:27.526Z,100477.53
2022-09-22T23:10:06.196Z,100474.88
2022-09-22T23:12:39.340Z,100474.84
2022-09-22T23:15:09.523Z,100476.53
2022-09-22T23:17:37.965Z,100476.47
2022-09-22T23:20:08.076Z,100482.56
2022-09-22T23:22:36.413Z,100472.88
2022-09-22T23:25:05.281Z,100472.81
2022-09-22T23:27:33.542Z,100466.63
2022-09-22T23:30:03.206Z,100457.88
2022-09-22T23:32:31.473Z,100462.16
2022-09-22T23:34:59.764Z,100452.47
2022-09-22T23:37:28.082Z,100450.69
2022-09-22T23:39:56.340Z,100455.91
2022-09-22T23:42:24.778Z,100444.47
2022-09-22T23:44:53.054Z,100448.84
2022-09-22T23:47:22.649Z,100440.03
2022-09-22T23:49:50.908Z,100444.34
2022-09-22T23:52:19.148Z,100437.34
2022-09-22T23:54:47.428Z,100435.53
2022-09-22T23:57:15.719Z,100443.38
2022-09-22T23:59:44.046Z,100436.31
